Time;durP1;ratioP1;P1;durP2;ratioP2;P2;SDS_P1;SDS_P2;PMS_P1;PMS_P2;Temp;Humidity;BMP_temperature;BMP_pressure;BME280_temperature;BME280_humidity;BME280_pressure;Samples;Min_cycle;Max_cycle;Signal;HPM_P1;HPM_P2
2021/01/25 00:00:19;;;;;;;4.30;1.90;;;;;;;2.02;77.33;98353.47;5057886;28;20029;-72
2021/01/25 00:02:44;;;;;;;4.43;1.80;;;;;;;1.58;78.47;98309.47;5057968;28;20531;-73
2021/01/25 00:05:10;;;;;;;3.28;1.80;;;;;;;1.68;79.71;98330.84;5057445;28;20040;-72
2021/01/25 00:07:36;;;;;;;4.93;2.20;;;;;;;1.61;80.93;98351.34;5075666;28;20500;-73
2021/01/25 00:10:04;;;;;;;4.70;1.95;;;;;;;1.49;82.30;98336.25;5057305;28;20103;-72
2021/01/25 00:12:29;;;;;;;3.85;2.05;;;;;;;1.03;83.37;98301.06;5075809;28;20032;-72
2021/01/25 00:14:55;;;;;;;3.75;2.03;;;;;;;1.22;84.13;98353.47;5057714;28;20029;-72
2021/01/25 00:17:20;;;;;;;4.90;2.70;;;;;;;0.83;85.13;98294.22;5057578;28;20032;-72
2021/01/25 00:19:46;;;;;;;5.43;2.38;;;;;;;1.04;86.85;98371.88;5057648;28;20067;-71
2021/01/25 00:22:12;;;;;;;5.22;2.55;;;;;;;0.97;87.62;98354.75;5074990;28;20032;-72
2021/01/25 00:24:37;;;;;;;4.90;2.50;;;;;;;0.91;88.32;98336.69;5057538;28;20103;-71
2021/01/25 00:27:03;;;;;;;5.03;2.50;;;;;;;1.00;88.55;98354.59;5057090;28;20123;-71
2021/01/25 00:29:29;;;;;;;5.53;2.80;;;;;;;0.83;89.08;98329.19;5057299;28;20033;-72
2021/01/25 00:31:54;;;;;;;5.88;2.97;;;;;;;0.66;89.45;98302.09;5075048;28;20036;-72
2021/01/25 00:34:21;;;;;;;5.72;2.90;;;;;;;1.11;88.65;98375.88;5057392;28;20036;-72
2021/01/25 00:36:46;;;;;;;6.70;2.92;;;;;;;1.00;89.01;98359.00;5057371;28;20454;-72
2021/01/25 00:39:12;;;;;;;6.05;3.30;;;;;;;0.94;89.61;98354.88;5074713;28;20044;-72
2021/01/25 00:41:37;;;;;;;5.70;3.45;;;;;;;0.75;89.57;98296.38;5056907;28;20044;-72
2021/01/25 00:44:03;;;;;;;7.35;3.78;;;;;;;0.85;89.66;98318.59;5074773;28;20055;-74
2021/01/25 00:46:29;;;;;;;6.38;3.42;;;;;;;1.10;89.68;98366.31;5057085;28;20158;-75
2021/01/25 00:48:54;;;;;;;6.35;3.33;;;;;;;1.05;89.55;98360.44;5057225;28;20036;-76
2021/01/25 00:51:20;;;;;;;6.60;3.60;;;;;;;0.84;90.33;98325.63;5074499;28;20101;-75
2021/01/25 00:53:45;;;;;;;6.65;3.65;;;;;;;1.15;89.69;98364.28;5074907;28;20039;-75
2021/01/25 00:56:11;;;;;;;7.18;3.67;;;;;;;1.20;89.45;98369.31;5074524;28;20466;-75
2021/01/25 00:58:37;;;;;;;6.20;3.47;;;;;;;1.16;89.14;98375.66;5074983;28;20039;-76
2021/01/25 01:01:03;;;;;;;6.70;3.47;;;;;;;1.13;89.35;98366.13;5039989;28;20043;-75
2021/01/25 01:03:29;;;;;;;8.27;3.97;;;;;;;0.91;88.87;98328.81;5056713;28;20037;-75
2021/01/25 01:05:54;;;;;;;7.07;4.00;;;;;;;1.15;89.18;98372.16;5056833;28;20519;-79
2021/01/25 01:08:20;;;;;;;6.80;4.03;;;;;;;0.77;89.52;98315.53;5074459;28;20032;-73
2021/01/25 01:10:46;;;;;;;7.43;3.92;;;;;;;1.04;89.17;98361.38;5074793;28;20475;-74
2021/01/25 01:13:11;;;;;;;7.28;4.10;;;;;;;1.08;89.34;98368.16;5074133;28;20395;-73
2021/01/25 01:15:37;;;;;;;7.32;3.92;;;;;;;1.05;89.80;98367.47;5056493;28;20039;-74
2021/01/25 01:18:03;;;;;;;8.35;3.88;;;;;;;0.98;90.23;98364.31;5073892;28;20070;-73
2021/01/25 01:20:28;;;;;;;7.20;3.83;;;;;;;1.09;89.76;98359.38;5074464;28;20534;-73
2021/01/25 01:22:54;;;;;;;6.07;3.72;;;;;;;1.09;88.88;98363.78;5056567;28;20056;-72
2021/01/25 01:25:19;;;;;;;7.15;3.88;;;;;;;1.05;88.47;98364.84;5056254;28;20036;-73
2021/01/25 01:27:45;;;;;;;6.90;3.60;;;;;;;0.93;89.19;98341.84;5056547;28;20089;-73
2021/01/25 01:30:11;;;;;;;8.75;3.55;;;;;;;1.14;87.21;98367.00;5073830;28;20033;-75
2021/01/25 01:32:37;;;;;;;5.35;2.90;;;;;;;1.04;86.99;98360.50;5039924;28;20404;-75
2021/01/25 01:35:03;;;;;;;5.93;2.88;;;;;;;0.81;86.70;98332.84;5073921;28;20032;-75
2021/01/25 01:37:29;;;;;;;6.15;3.13;;;;;;;1.00;87.71;98357.22;5074325;28;20043;-75
2021/01/25 01:39:54;;;;;;;8.25;3.30;;;;;;;1.04;87.21;98350.00;5055794;28;20032;-74
2021/01/25 01:42:20;;;;;;;10.13;3.47;;;;;;;0.75;87.17;98302.50;5039120;28;20044;-75
2021/01/25 01:44:45;;;;;;;4.85;3.05;;;;;;;1.20;86.77;98363.22;5056284;28;20071;-76
2021/01/25 01:47:14;;;;;;;5.97;3.33;;;;;;;1.18;85.56;98354.56;5073758;28;20465;-76
2021/01/25 01:49:40;;;;;;;6.55;3.38;;;;;;;1.01;85.46;98324.78;5073860;28;20392;-79
2021/01/25 01:52:07;;;;;;;5.43;2.90;;;;;;;1.09;83.68;98308.63;5055901;28;20033;-79
2021/01/25 01:54:32;;;;;;;5.15;2.92;;;;;;;1.22;83.96;98328.06;5074290;28;20385;-78
2021/01/25 01:56:58;;;;;;;4.85;2.90;;;;;;;1.42;83.63;98345.38;5039119;28;20036;-79
2021/01/25 01:59:23;;;;;;;7.50;2.80;;;;;;;1.38;81.72;98331.56;5073823;28;20025;-77
2021/01/25 02:01:49;;;;;;;6.65;3.30;;;;;;;1.34;80.00;98300.28;5055583;28;20037;-77
2021/01/25 02:04:14;;;;;;;6.15;3.10;;;;;;;1.42;82.39;98334.88;5072560;28;20457;-76
2021/01/25 02:06:42;;;;;;;6.75;3.00;;;;;;;1.11;81.87;98275.25;5055828;28;20028;-76
2021/01/25 02:09:10;;;;;;;5.18;3.08;;;;;;;1.43;80.82;98313.75;5073094;28;20025;-77
2021/01/25 02:11:37;;;;;;;5.07;3.05;;;;;;;1.49;80.93;98320.47;5073781;28;20108;-74
2021/01/25 02:14:04;;;;;;;7.20;3.28;;;;;;;1.52;80.40;98324.72;5073151;28;20435;-77
2021/01/25 02:16:30;;;;;;;5.35;3.05;;;;;;;1.53;79.96;98316.75;5055509;28;20028;-76
2021/01/25 02:18:56;;;;;;;6.15;3.03;;;;;;;1.59;79.64;98326.94;5073243;28;20036;-77
2021/01/25 02:21:28;;;;;;;4.57;2.85;;;;;;;1.51;77.93;98308.09;5055211;28;20029;-75
2021/01/25 02:24:39;;;;;;;4.75;2.50;;;;;;;1.62;76.01;98324.13;5073498;28;20033;-78
2021/01/25 02:27:28;;;;;;;6.10;2.60;;;;;;;1.76;72.80;98314.66;4972008;28;20093;-75
2021/01/25 02:29:54;;;;;;;4.18;2.30;;;;;;;1.75;71.91;98315.59;5073047;28;20060;-75
2021/01/25 02:32:20;;;;;;;5.03;2.45;;;;;;;1.78;72.44;98325.94;5038271;28;20874;-75
2021/01/25 02:34:46;;;;;;;4.30;2.40;;;;;;;1.73;74.64;98326.16;5072892;28;20043;-75
2021/01/25 02:37:13;;;;;;;6.05;2.13;;;;;;;1.91;67.66;98326.94;5054606;28;20063;-76
2021/01/25 02:39:39;;;;;;;4.53;2.38;;;;;;;1.95;69.81;98323.22;5055597;28;20037;-76
2021/01/25 02:42:05;;;;;;;5.10;2.17;;;;;;;1.69;70.38;98283.44;5054437;28;20083;-76
2021/01/25 02:44:33;;;;;;;4.90;2.40;;;;;;;1.80;70.87;98303.03;5073049;28;20036;-74
2021/01/25 02:46:59;;;;;;;4.68;2.45;;;;;;;1.96;70.84;98317.03;5055391;28;20071;-74
2021/01/25 02:49:24;;;;;;;3.20;2.13;;;;;;;1.83;71.77;98301.06;5054747;28;20064;-74
2021/01/25 02:51:50;;;;;;;5.15;2.15;;;;;;;1.88;71.41;98311.34;5072753;28;20028;-75
2021/01/25 02:54:15;;;;;;;3.72;2.08;;;;;;;1.87;70.03;98301.75;5054528;28;20374;-74
2021/01/25 02:56:41;;;;;;;3.70;1.90;;;;;;;1.93;69.17;98306.66;5055412;28;20067;-74
2021/01/25 02:59:08;;;;;;;5.20;2.20;;;;;;;1.68;68.98;98273.03;5054525;28;20028;-74
2021/01/25 03:01:34;;;;;;;4.65;2.50;;;;;;;1.84;69.16;98301.94;5073064;28;20047;-73
2021/01/25 03:04:00;;;;;;;3.53;1.98;;;;;;;1.83;69.15;98295.81;5054919;28;20037;-74
2021/01/25 03:06:26;;;;;;;5.10;2.60;;;;;;;1.92;69.07;98297.06;5072391;28;20028;-74
2021/01/25 03:08:52;;;;;;;3.90;2.17;;;;;;;2.01;67.32;98307.94;5038293;28;20090;-74
2021/01/25 03:11:19;;;;;;;4.80;2.58;;;;;;;1.90;68.44;98293.69;5072299;28;20028;-73
2021/01/25 03:13:45;;;;;;;4.40;2.00;;;;;;;1.55;69.92;98251.84;5054928;28;20052;-73
2021/01/25 03:16:15;;;;;;;4.90;2.63;;;;;;;1.63;70.24;98268.00;5076382;28;20059;-74
2021/01/25 03:18:40;;;;;;;3.42;1.98;;;;;;;1.54;70.90;98265.88;5076583;28;20036;-72
2021/01/25 03:21:06;;;;;;;7.30;2.90;;;;;;;1.77;71.30;98314.56;5058367;28;20439;-72
2021/01/25 03:23:31;;;;;;;4.70;2.50;;;;;;;1.67;70.31;98281.84;5042042;28;20080;-74
2021/01/25 03:25:56;;;;;;;5.93;2.55;;;;;;;1.46;70.69;98270.75;5076577;28;20035;-73
2021/01/25 03:28:22;;;;;;;4.05;1.83;;;;;;;1.76;70.47;98302.38;5058621;28;20035;-75
2021/01/25 03:30:47;;;;;;;4.97;2.45;;;;;;;1.69;70.74;98285.22;5076400;28;20370;-75
2021/01/25 03:33:13;;;;;;;4.35;2.50;;;;;;;1.80;70.68;98300.41;5058091;28;20036;-76
2021/01/25 03:35:38;;;;;;;5.20;3.00;;;;;;;1.58;71.75;98284.97;5076619;28;20109;-76
2021/01/25 03:38:04;;;;;;;6.85;2.90;;;;;;;1.64;71.37;98298.63;5076465;28;20025;-75
2021/01/25 03:40:29;;;;;;;4.78;2.70;;;;;;;1.69;72.01;98301.84;5057856;28;20393;-75
2021/01/25 03:42:55;;;;;;;5.97;2.80;;;;;;;1.71;70.91;98297.34;5058423;28;20032;-76
2021/01/25 03:45:20;;;;;;;5.22;2.70;;;;;;;1.45;71.66;98258.53;5076083;28;20036;-76
2021/01/25 03:47:47;;;;;;;5.50;2.58;;;;;;;1.70;70.91;98297.44;5058083;28;20119;-74
2021/01/25 03:50:13;;;;;;;3.60;2.08;;;;;;;1.78;69.86;98297.00;5041534;28;20029;-76
2021/01/25 03:52:39;;;;;;;4.72;2.65;;;;;;;1.66;70.75;98291.50;5076594;28;20064;-75
2021/01/25 03:55:05;;;;;;;4.88;2.80;;;;;;;1.69;70.97;98293.13;5058346;28;20110;-77
2021/01/25 03:57:31;;;;;;;5.90;2.50;;;;;;;1.50;70.55;98264.38;5041485;28;20541;-76
2021/01/25 03:59:56;;;;;;;5.10;2.72;;;;;;;1.66;71.01;98286.25;5075810;28;20028;-74
2021/01/25 04:02:22;;;;;;;6.47;2.67;;;;;;;1.44;71.56;98255.03;5075406;28;20185;-75
2021/01/25 04:04:47;;;;;;;6.50;2.80;;;;;;;1.63;69.93;98299.53;5075622;28;20178;-75
2021/01/25 04:07:13;;;;;;;4.05;2.17;;;;;;;1.55;70.85;98293.03;5057764;28;20358;-73
2021/01/25 04:09:39;;;;;;;6.72;2.85;;;;;;;1.53;70.41;98293.09;5075590;28;20048;-73
2021/01/25 04:12:05;;;;;;;4.55;2.47;;;;;;;1.62;70.92;98316.25;5057647;28;20554;-74
2021/01/25 04:14:31;;;;;;;5.70;2.67;;;;;;;1.40;70.13;98271.06;5075340;28;20029;-73
2021/01/25 04:16:56;;;;;;;6.57;2.95;;;;;;;1.58;70.47;98298.97;5075477;28;20484;-75
2021/01/25 04:19:22;;;;;;;6.13;3.00;;;;;;;1.56;70.62;98303.47;5057127;28;20029;-72
2021/01/25 04:21:47;;;;;;;5.30;3.10;;;;;;;1.49;71.21;98309.13;5057709;28;20493;-75
2021/01/25 04:24:13;;;;;;;5.45;2.90;;;;;;;1.59;70.61;98326.94;5040814;28;20362;-74
2021/01/25 04:26:41;;;;;;;5.75;2.88;;;;;;;1.32;71.26;98262.75;5040181;28;20055;-74
2021/01/25 04:29:09;;;;;;;3.20;1.88;;;;;;;1.53;69.97;98295.72;5075334;28;20481;-74
2021/01/25 04:31:35;;;;;;;3.90;2.47;;;;;;;1.36;70.71;98274.78;5057346;28;20533;-75
2021/01/25 04:34:00;;;;;;;5.47;2.90;;;;;;;1.58;71.41;98317.34;5057462;28;20127;-75
2021/01/25 04:36:26;;;;;;;5.68;2.80;;;;;;;1.62;71.31;98324.13;5074807;28;20039;-75
2021/01/25 04:38:52;;;;;;;4.20;2.53;;;;;;;1.57;71.29;98328.81;5075204;28;20035;-74
2021/01/25 04:41:17;;;;;;;6.80;3.30;;;;;;;1.32;72.77;98289.84;5056642;28;20049;-74
2021/01/25 04:43:43;;;;;;;5.03;2.90;;;;;;;1.62;71.84;98328.53;5075155;28;20039;-76
2021/01/25 04:46:08;;;;;;;7.05;2.97;;;;;;;1.50;72.41;98313.44;5075051;28;20032;-78
2021/01/25 04:48:39;;;;;;;6.10;2.53;;;;;;;1.61;71.88;98343.47;5040293;28;20059;-76
2021/01/25 04:51:05;;;;;;;7.88;3.63;;;;;;;1.27;71.03;98288.44;5057213;28;20033;-76
2021/01/25 04:53:31;;;;;;;5.78;3.13;;;;;;;1.62;71.37;98331.16;5074795;28;20039;-76
2021/01/25 04:55:57;;;;;;;5.45;2.25;;;;;;;1.17;72.75;98271.47;5074905;28;20048;-77
2021/01/25 04:58:23;;;;;;;3.85;2.20;;;;;;;1.45;72.55;98300.56;5074521;28;20037;-77
2021/01/25 05:00:48;;;;;;;5.45;3.17;;;;;;;1.38;71.63;98291.31;5074760;28;20077;-77
2021/01/25 05:03:14;;;;;;;6.03;3.30;;;;;;;1.63;71.96;98338.97;5056510;28;20037;-76
2021/01/25 05:05:40;;;;;;;6.45;3.55;;;;;;;1.52;72.76;98320.31;5057082;28;20094;-75
2021/01/25 05:08:05;;;;;;;5.75;3.80;;;;;;;1.63;71.62;98331.06;5074946;28;20039;-74
2021/01/25 05:10:31;;;;;;;3.90;2.42;;;;;;;1.52;73.45;98307.16;5039826;28;20037;-74
2021/01/25 05:12:57;;;;;;;7.00;3.70;;;;;;;1.46;73.93;98318.03;5074541;28;20492;-73
2021/01/25 05:15:34;;;;;;;7.20;3.38;;;;;;;1.64;72.88;98337.19;5039628;28;20033;-75
2021/01/25 05:18:11;;;;;;;7.22;3.90;;;;;;;1.32;73.49;98286.38;5074565;28;20028;-74
2021/01/25 05:20:37;;;;;;;9.65;4.13;;;;;;;1.39;73.47;98306.16;5056459;28;20063;-71
2021/01/25 05:23:12;;;;;;;7.03;3.80;;;;;;;1.64;73.06;98334.56;5056442;28;20052;-72
2021/01/25 05:25:38;;;;;;;5.95;3.70;;;;;;;1.66;73.29;98341.44;5074252;28;20032;-72
2021/01/25 05:28:07;;;;;;;7.15;3.72;;;;;;;1.63;74.11;98346.84;5056399;28;20029;-72
2021/01/25 05:30:34;;;;;;;6.63;3.67;;;;;;;1.43;74.30;98331.31;5073622;28;20044;-73
2021/01/25 05:33:00;;;;;;;3.85;2.60;;;;;;;1.50;74.43;98345.81;5074252;28;20058;-73
2021/01/25 05:35:28;;;;;;;8.40;4.07;;;;;;;1.52;74.16;98357.09;5073751;28;20028;-74
2021/01/25 05:37:56;;;;;;;5.72;3.42;;;;;;;1.55;74.40;98371.88;5073893;28;20075;-71
2021/01/25 05:40:24;;;;;;;5.00;2.65;;;;;;;1.55;74.47;98362.22;5073350;28;20135;-73
2021/01/25 05:42:50;;;;;;;7.07;3.88;;;;;;;1.53;74.34;98366.66;5073827;28;20169;-72
2021/01/25 05:45:17;;;;;;;4.85;3.05;;;;;;;1.50;75.04;98360.75;5055709;28;20029;-75
2021/01/25 05:47:44;;;;;;;7.25;4.05;;;;;;;1.65;73.76;98367.81;5055679;28;20028;-74
2021/01/25 05:50:23;;;;;;;7.55;4.20;;;;;;;1.60;74.95;98380.34;5073710;28;20033;-73
2021/01/25 05:52:48;;;;;;;7.22;4.25;;;;;;;1.51;75.20;98362.44;5073677;28;20559;-75
2021/01/25 05:55:13;;;;;;;8.10;3.90;;;;;;;1.55;75.53;98377.97;5073473;28;20033;-74
2021/01/25 05:57:39;;;;;;;5.18;3.40;;;;;;;1.64;74.61;98380.09;5038948;28;20048;-70
2021/01/25 06:00:07;;;;;;;6.82;4.53;;;;;;;1.57;75.29;98378.72;5055913;28;20154;-74
2021/01/25 06:02:36;;;;;;;7.13;4.10;;;;;;;1.65;75.10;98373.06;5073024;28;20082;-72
2021/01/25 06:05:02;;;;;;;7.78;4.03;;;;;;;1.54;75.24;98357.00;5073433;28;20031;-71
2021/01/25 06:07:28;;;;;;;7.85;4.25;;;;;;;1.38;75.43;98349.13;5072663;28;20028;-71
2021/01/25 06:09:55;;;;;;;6.80;4.30;;;;;;;1.61;75.13;98388.13;5073299;28;20059;-71
2021/01/25 06:12:29;;;;;;;6.97;4.43;;;;;;;1.59;75.69;98407.56;5055341;28;20040;-71
2021/01/25 06:15:07;;;;;;;6.60;3.72;;;;;;;1.58;75.32;98404.06;5073494;28;20052;-71
2021/01/25 06:17:34;;;;;;;7.05;4.57;;;;;;;1.50;76.20;98398.38;5055525;28;20035;-71
2021/01/25 06:20:05;;;;;;;9.48;4.40;;;;;;;1.58;76.08;98416.38;5072913;28;20047;-68
2021/01/25 06:22:31;;;;;;;11.60;4.60;;;;;;;1.57;75.82;98418.16;5072801;28;20028;-74
2021/01/25 06:25:02;;;;;;;9.02;4.40;;;;;;;1.45;76.73;98403.03;5055244;28;20424;-74
2021/01/25 06:27:30;;;;;;;4.93;3.05;;;;;;;1.56;75.84;98411.19;5072698;28;20025;-71
2021/01/25 06:29:59;;;;;;;5.32;3.35;;;;;;;1.55;76.43;98437.56;5073071;28;20108;-70
2021/01/25 06:32:33;;;;;;;6.43;4.13;;;;;;;1.56;76.71;98452.41;5054963;28;20462;-72
2021/01/25 06:35:03;;;;;;;8.45;5.10;;;;;;;1.56;76.33;98448.00;5073431;28;20029;-71
2021/01/25 06:37:29;;;;;;;4.38;3.00;;;;;;;1.44;76.37;98446.81;5072784;28;20039;-71
2021/01/25 06:39:57;;;;;;;7.10;3.97;;;;;;;1.47;76.94;98448.47;5072634;28;20115;-70
2021/01/25 06:42:31;;;;;;;7.72;4.55;;;;;;;1.64;75.92;98464.22;5072928;28;20420;-70
2021/01/25 06:44:59;;;;;;;7.43;4.88;;;;;;;1.62;76.56;98473.94;5073057;28;20056;-72
2021/01/25 06:47:24;;;;;;;7.70;5.03;;;;;;;1.41;75.88;98427.75;5072950;28;20074;-70
2021/01/25 06:49:51;;;;;;;10.05;4.03;;;;;;;1.65;76.47;98465.06;5072629;28;20049;-72
2021/01/25 06:52:18;;;;;;;7.97;3.30;;;;;;;1.63;76.38;98462.47;5073352;28;20044;-75
2021/01/25 06:54:44;;;;;;;7.80;4.00;;;;;;;1.56;76.21;98461.13;5054871;28;20032;-72
2021/01/25 06:57:21;;;;;;;8.82;4.75;;;;;;;1.57;76.31;98452.31;5055019;28;20510;-71
2021/01/25 06:59:49;;;;;;;4.88;3.15;;;;;;;1.66;76.09;98470.22;5072894;28;20028;-72
2021/01/25 07:02:18;;;;;;;5.72;3.75;;;;;;;1.69;76.44;98475.31;5054983;28;20032;-71
2021/01/25 07:04:50;;;;;;;6.28;3.53;;;;;;;1.71;76.03;98467.34;5072428;28;20028;-72
2021/01/25 07:07:21;;;;;;;6.82;4.03;;;;;;;1.73;76.73;98468.97;5055017;28;20123;-71
2021/01/25 07:09:48;;;;;;;6.18;3.17;;;;;;;1.76;76.23;98477.63;5054838;28;20466;-73
2021/01/25 07:12:14;;;;;;;8.43;5.10;;;;;;;1.82;75.88;98485.19;5072474;28;20033;-71
2021/01/25 07:14:40;;;;;;;6.97;4.43;;;;;;;1.67;75.25;98444.78;5054506;28;20147;-72
2021/01/25 07:17:05;;;;;;;8.02;4.18;;;;;;;1.66;75.36;98443.94;5072659;28;20445;-71
2021/01/25 07:19:31;;;;;;;7.10;3.95;;;;;;;1.60;75.56;98439.00;5072563;28;20107;-73
2021/01/25 07:21:57;;;;;;;10.68;5.20;;;;;;;1.82;75.91;98469.41;5072767;28;20086;-70
2021/01/25 07:24:24;;;;;;;6.15;4.30;;;;;;;1.79;75.90;98465.16;5072520;28;20469;-72
2021/01/25 07:26:57;;;;;;;7.05;4.85;;;;;;;1.97;75.55;98482.59;5054600;28;20477;-70
2021/01/25 07:29:23;;;;;;;6.32;4.05;;;;;;;1.65;75.65;98447.50;5072590;28;20393;-72
2021/01/25 07:31:51;;;;;;;6.93;4.50;;;;;;;1.67;75.07;98435.13;5072585;28;20693;-71
2021/01/25 07:34:16;;;;;;;6.32;4.22;;;;;;;1.78;74.73;98467.88;5072506;28;20055;-71
2021/01/25 07:36:43;;;;;;;6.72;4.25;;;;;;;2.10;75.00;98489.81;5037632;28;20072;-72
2021/01/25 07:39:14;;;;;;;5.35;3.97;;;;;;;2.00;74.80;98492.09;5054334;28;20392;-72
2021/01/25 07:41:40;;;;;;;7.20;2.67;;;;;;;2.08;74.67;98507.47;5071793;28;20044;-71
2021/01/25 07:44:07;;;;;;;8.18;4.82;;;;;;;1.73;74.63;98442.66;5072310;28;20451;-71
2021/01/25 07:46:34;;;;;;;8.15;5.20;;;;;;;2.14;75.19;98518.53;5054405;28;20112;-71
2021/01/25 07:49:00;;;;;;;5.68;3.33;;;;;;;2.07;74.29;98490.84;5072414;28;20060;-72
2021/01/25 07:51:28;;;;;;;4.95;3.13;;;;;;;1.93;74.57;98488.09;5072163;28;20071;-72
2021/01/25 07:53:55;;;;;;;6.07;3.75;;;;;;;2.15;74.22;98493.06;5072147;28;20036;-70
2021/01/25 07:56:23;;;;;;;5.28;3.22;;;;;;;2.01;74.15;98493.78;5072448;28;20033;-71
2021/01/25 07:58:49;;;;;;;7.50;5.00;;;;;;;2.34;73.64;98529.75;5072260;28;20032;-71
2021/01/25 08:01:19;;;;;;;7.18;3.30;;;;;;;2.30;74.06;98536.94;5073080;28;20033;-70
2021/01/25 08:03:50;;;;;;;5.22;3.47;;;;;;;2.24;73.55;98518.88;5075779;28;20543;-72
2021/01/25 08:06:16;;;;;;;8.90;5.40;;;;;;;2.34;73.70;98540.28;5075761;28;20024;-72
2021/01/25 08:08:47;;;;;;;6.57;3.60;;;;;;;2.42;73.96;98530.19;5075676;28;20389;-70
2021/01/25 08:11:12;;;;;;;7.47;4.32;;;;;;;2.30;74.19;98519.38;5075999;28;20021;-70
2021/01/25 08:13:53;;;;;;;7.07;4.05;;;;;;;2.17;73.82;98507.84;5075492;28;20366;-72
2021/01/25 08:16:21;;;;;;;7.43;4.40;;;;;;;2.17;73.84;98505.19;5057745;28;20097;-71
2021/01/25 08:18:56;;;;;;;8.20;5.30;;;;;;;2.43;73.58;98539.78;5041024;28;20040;-71
2021/01/25 08:21:28;;;;;;;8.18;5.07;;;;;;;2.59;73.63;98556.44;5057848;28;20337;-70
2021/01/25 08:23:58;;;;;;;7.78;4.60;;;;;;;2.60;73.14;98558.13;5075717;28;20553;-71
2021/01/25 08:26:27;;;;;;;5.80;4.00;;;;;;;2.69;73.55;98559.41;5075647;28;20032;-70
2021/01/25 08:29:02;;;;;;;7.10;4.15;;;;;;;2.61;72.78;98537.94;5075306;28;20032;-72
2021/01/25 08:31:37;;;;;;;7.70;4.32;;;;;;;2.70;73.05;98564.63;5074974;28;20077;-70
2021/01/25 08:34:16;;;;;;;8.65;4.50;;;;;;;2.72;72.57;98568.00;5075191;28;20091;-71
2021/01/25 08:36:41;;;;;;;6.00;3.28;;;;;;;2.61;72.57;98548.47;5075278;28;20036;-71
2021/01/25 08:39:17;;;;;;;7.78;4.90;;;;;;;2.83;72.50;98560.34;5075595;28;20382;-73
2021/01/25 08:41:55;;;;;;;12.25;5.55;;;;;;;3.02;71.22;98569.88;5074977;28;20048;-72
2021/01/25 08:44:23;;;;;;;8.80;5.50;;;;;;;3.08;71.78;98556.34;5075419;28;20093;-72
2021/01/25 08:46:50;;;;;;;8.15;5.32;;;;;;;2.93;71.75;98546.69;5074785;28;20024;-71
2021/01/25 08:49:23;;;;;;;8.35;5.15;;;;;;;3.15;72.03;98555.06;5075348;28;20052;-71
2021/01/25 08:51:57;;;;;;;9.32;5.50;;;;;;;3.31;70.81;98562.94;5074727;28;20398;-71
2021/01/25 08:54:26;;;;;;;8.48;5.05;;;;;;;3.25;70.82;98569.41;5074742;28;20072;-71
2021/01/25 08:56:52;;;;;;;6.05;3.55;;;;;;;3.14;70.22;98563.91;5074696;28;20047;-71
2021/01/25 08:59:29;;;;;;;6.18;3.45;;;;;;;3.07;70.60;98560.75;5074691;28;20031;-71
2021/01/25 09:01:55;;;;;;;6.05;3.92;;;;;;;3.17;70.19;98579.53;5074539;28;20086;-71
2021/01/25 09:04:20;;;;;;;9.63;5.25;;;;;;;3.11;69.77;98564.09;5056801;28;20032;-71
2021/01/25 09:06:54;;;;;;;7.57;4.88;;;;;;;3.36;68.96;98590.72;5056620;28;20056;-71
2021/01/25 09:09:20;;;;;;;7.53;4.05;;;;;;;3.31;70.03;98592.78;5056959;28;20094;-71
2021/01/25 09:11:46;;;;;;;9.68;5.63;;;;;;;3.40;69.11;98587.00;5074229;28;20071;-72
2021/01/25 09:14:12;;;;;;;10.38;4.85;;;;;;;3.37;69.44;98576.59;5074507;28;20385;-71
2021/01/25 09:16:37;;;;;;;10.90;5.30;;;;;;;3.40;69.53;98552.72;5074349;28;20033;-72
2021/01/25 09:19:03;;;;;;;15.35;5.47;;;;;;;3.93;67.88;98588.25;5074450;28;20029;-71
2021/01/25 09:21:29;;;;;;;6.85;3.33;;;;;;;3.71;67.65;98587.84;5074308;28;20036;-71
2021/01/25 09:23:54;;;;;;;8.52;5.30;;;;;;;3.71;68.23;98595.75;5056352;28;20055;-72
2021/01/25 09:26:20;;;;;;;8.05;5.07;;;;;;;3.68;67.66;98574.84;5074489;28;20073;-71
2021/01/25 09:28:45;;;;;;;9.90;5.60;;;;;;;3.72;68.12;98586.91;5074282;28;20308;-71
2021/01/25 09:31:11;;;;;;;7.28;4.78;;;;;;;3.63;67.81;98576.88;5056861;28;20043;-72
2021/01/25 09:33:37;;;;;;;7.20;4.63;;;;;;;3.76;67.58;98577.00;5056376;28;20431;-72
2021/01/25 09:36:03;;;;;;;9.38;5.45;;;;;;;3.88;67.33;98581.59;5074131;28;20028;-72
2021/01/25 09:38:29;;;;;;;8.95;5.47;;;;;;;3.82;67.42;98592.47;5056231;28;20040;-72
2021/01/25 09:40:54;;;;;;;12.80;5.45;;;;;;;3.84;68.52;98585.31;5055704;28;20105;-71
2021/01/25 09:43:19;;;;;;;10.68;5.50;;;;;;;3.95;66.36;98591.66;5074071;28;20043;-71
2021/01/25 09:45:46;;;;;;;10.68;5.53;;;;;;;3.94;66.26;98592.59;5073853;28;20035;-71
2021/01/25 09:48:12;;;;;;;8.90;4.93;;;;;;;3.87;66.26;98591.28;5073771;28;20050;-71
2021/01/25 09:50:37;;;;;;;10.35;5.50;;;;;;;3.78;66.04;98576.00;5055993;28;20469;-72
2021/01/25 09:53:03;;;;;;;10.25;5.60;;;;;;;3.60;67.02;98530.47;5056071;28;20115;-71
2021/01/25 09:55:28;;;;;;;9.35;5.60;;;;;;;4.01;66.45;98582.53;5073806;28;20037;-72
2021/01/25 09:57:55;;;;;;;10.80;5.72;;;;;;;3.67;66.00;98530.97;5073510;28;20067;-72
2021/01/25 10:00:21;;;;;;;8.43;5.20;;;;;;;4.06;65.10;98574.38;5056087;28;20041;-71
2021/01/25 10:02:47;;;;;;;7.80;4.65;;;;;;;3.97;67.10;98573.97;5073223;28;20444;-71
2021/01/25 10:05:15;;;;;;;5.85;3.60;;;;;;;4.00;66.22;98573.78;5073397;28;20489;-71
2021/01/25 10:07:40;;;;;;;5.70;3.38;;;;;;;3.81;66.46;98570.53;5055766;28;20127;-72
2021/01/25 10:10:10;;;;;;;5.03;2.88;;;;;;;3.54;67.01;98549.28;5073370;28;20124;-72
2021/01/25 10:12:35;;;;;;;6.50;4.55;;;;;;;3.65;67.18;98567.94;5073292;28;20024;-72
2021/01/25 10:15:01;;;;;;;10.20;5.05;;;;;;;3.42;67.05;98545.56;5073254;28;20047;-71
2021/01/25 10:17:30;;;;;;;10.60;5.35;;;;;;;3.66;67.77;98568.78;5073211;28;20367;-71
2021/01/25 10:19:55;;;;;;;10.05;5.20;;;;;;;3.89;66.08;98589.41;5072983;28;20036;-71
2021/01/25 10:22:21;;;;;;;11.73;5.43;;;;;;;3.84;66.34;98580.91;5073233;28;20033;-72
2021/01/25 10:24:46;;;;;;;12.00;5.75;;;;;;;3.88;66.78;98587.69;5072282;28;20036;-71
2021/01/25 10:27:13;;;;;;;8.82;5.68;;;;;;;3.85;66.82;98590.50;5073090;28;20048;-71
2021/01/25 10:29:38;;;;;;;7.43;3.38;;;;;;;3.85;67.10;98592.28;5072944;28;20040;-72
2021/01/25 10:32:04;;;;;;;14.13;5.70;;;;;;;3.63;66.51;98545.25;5055860;28;20489;-71
2021/01/25 10:34:29;;;;;;;6.38;3.10;;;;;;;3.50;67.09;98521.41;5073077;28;20047;-71
2021/01/25 10:36:55;;;;;;;6.72;3.63;;;;;;;3.59;68.39;98581.50;5055125;28;20048;-70
2021/01/25 10:39:20;;;;;;;13.15;5.80;;;;;;;3.62;68.41;98568.13;5055108;28;20033;-71
2021/01/25 10:41:46;;;;;;;13.88;5.90;;;;;;;3.83;67.37;98597.66;5072909;28;20044;-72
2021/01/25 10:44:17;;;;;;;11.02;6.28;;;;;;;3.63;67.06;98545.25;5073225;28;20074;-71
2021/01/25 10:46:44;;;;;;;8.75;5.55;;;;;;;3.75;67.46;98576.16;5072561;28;20035;-72
2021/01/25 10:49:10;;;;;;;8.43;4.45;;;;;;;3.78;67.00;98591.81;5073126;28;20033;-72
2021/01/25 10:51:35;;;;;;;6.60;4.07;;;;;;;3.72;66.60;98581.63;5073247;28;20032;-72
2021/01/25 10:54:01;;;;;;;9.85;5.15;;;;;;;3.69;66.81;98581.81;5072724;28;20074;-70
2021/01/25 10:56:26;;;;;;;12.10;5.72;;;;;;;3.46;67.21;98538.31;5073149;28;20025;-71
2021/01/25 10:58:51;;;;;;;8.85;5.05;;;;;;;3.77;67.22;98589.28;5054582;28;20036;-72
2021/01/25 11:01:17;;;;;;;9.95;5.20;;;;;;;3.85;66.34;98593.13;5072858;28;20424;-73
2021/01/25 11:03:42;;;;;;;6.15;4.03;;;;;;;3.77;67.32;98591.91;5072419;28;20028;-72
2021/01/25 11:06:16;;;;;;;12.77;5.60;;;;;;;3.86;67.01;98593.97;5072918;28;20033;-71
2021/01/25 11:08:42;;;;;;;10.52;5.55;;;;;;;3.80;67.65;98589.09;5072338;28;20504;-72
2021/01/25 11:11:08;;;;;;;8.10;4.57;;;;;;;3.81;66.92;98596.91;5073433;28;20040;-71
2021/01/25 11:13:33;;;;;;;8.55;5.40;;;;;;;3.81;66.95;98602.19;5072663;28;20058;-72
2021/01/25 11:15:59;;;;;;;9.82;4.95;;;;;;;3.87;67.22;98585.16;5072477;28;20036;-71
2021/01/25 11:18:25;;;;;;;7.20;4.00;;;;;;;3.42;66.89;98531.53;5072906;28;20450;-72
2021/01/25 11:20:50;;;;;;;8.30;5.25;;;;;;;3.78;66.88;98590.97;5072605;28;20033;-71
2021/01/25 11:23:16;;;;;;;7.78;5.82;;;;;;;3.84;67.41;98596.72;5054794;28;20029;-72
2021/01/25 11:25:41;;;;;;;9.43;5.90;;;;;;;3.68;67.73;98588.03;5072485;28;20044;-71
2021/01/25 11:28:07;;;;;;;9.93;5.57;;;;;;;3.83;67.14;98592.38;5054881;28;20043;-71
2021/01/25 11:30:33;;;;;;;8.55;5.68;;;;;;;3.79;66.86;98601.44;5054625;28;20029;-72
2021/01/25 11:32:59;;;;;;;5.07;3.05;;;;;;;3.70;67.89;98594.06;5072811;28;20028;-71
2021/01/25 11:35:25;;;;;;;9.32;5.22;;;;;;;3.85;67.64;98597.56;5056005;28;20037;-71
2021/01/25 11:37:50;;;;;;;9.45;5.43;;;;;;;3.94;65.81;98599.66;5076397;28;20040;-71
2021/01/25 11:40:16;;;;;;;9.60;5.60;;;;;;;3.80;65.89;98545.09;5076343;28;20466;-71